Time;durP1;ratioP1;P1;durP2;ratioP2;P2;SDS_P1;SDS_P2;PMS_P1;PMS_P2;Temp;Humidity;BMP_temperature;BMP_pressure;BME280_temperature;BME280_humidity;BME280_pressure;Samples;Min_cycle;Max_cycle;Signal;HPM_P1;HPM_P2
2020/03/24 00:00:49;;;;;;;3.57;3.18;;;;;;;19.70;31.88;102103.23;;;;-46
2020/03/24 00:03:49;;;;;;;3.70;3.20;;;;;;;19.69;31.87;102103.00;;;;-45
2020/03/24 00:06:49;;;;;;;3.75;3.35;;;;;;;19.67;31.91;102099.55;;;;-46
2020/03/24 00:13:49;;;;;;;3.91;3.44;;;;;;;19.64;31.95;102093.88;;;;-46
2020/03/24 00:16:49;;;;;;;3.92;3.10;;;;;;;19.63;31.95;102094.41;;;;-45
2020/03/24 00:19:49;;;;;;;3.71;3.31;;;;;;;19.61;31.97;102093.44;;;;-46
2020/03/24 00:22:49;;;;;;;3.68;3.31;;;;;;;19.60;31.96;102092.70;;;;-45
2020/03/24 00:25:49;;;;;;;3.80;3.35;;;;;;;19.58;31.98;102089.20;;;;-47
2020/03/24 00:28:49;;;;;;;3.50;3.20;;;;;;;19.57;31.99;102091.07;;;;-46
2020/03/24 00:31:49;;;;;;;3.67;3.27;;;;;;;19.55;32.05;102093.00;;;;-45
2020/03/24 00:34:49;;;;;;;3.91;3.20;;;;;;;19.54;31.99;102094.45;;;;-45
2020/03/24 00:37:49;;;;;;;3.43;3.04;;;;;;;19.53;32.04;102095.00;;;;-45
2020/03/24 00:40:49;;;;;;;3.37;3.07;;;;;;;19.51;32.05;102096.88;;;;-45
2020/03/24 00:43:49;;;;;;;3.58;3.21;;;;;;;19.50;32.10;102097.62;;;;-46
2020/03/24 00:46:49;;;;;;;3.91;3.07;;;;;;;19.49;32.09;102098.89;;;;-45
2020/03/24 00:49:49;;;;;;;3.43;3.13;;;;;;;19.47;32.13;102099.10;;;;-47
2020/03/24 00:52:49;;;;;;;3.42;3.12;;;;;;;19.46;32.15;102097.06;;;;-48
2020/03/24 00:55:49;;;;;;;3.40;3.10;;;;;;;19.46;32.13;102104.21;;;;-47
2020/03/24 00:58:49;;;;;;;3.79;2.98;;;;;;;19.44;32.11;102105.85;;;;-46
2020/03/24 01:01:49;;;;;;;3.33;3.03;;;;;;;19.42;32.11;102107.83;;;;-47
2020/03/24 01:04:49;;;;;;;3.30;2.99;;;;;;;19.40;32.20;102102.72;;;;-45
2020/03/24 01:07:49;;;;;;;3.37;3.03;;;;;;;19.39;32.06;102102.31;;;;-45
2020/03/24 01:10:49;;;;;;;3.46;3.09;;;;;;;19.38;32.23;102096.21;;;;-46
2020/03/24 01:13:49;;;;;;;3.45;3.07;;;;;;;19.37;32.23;102100.22;;;;-45
2020/03/24 01:16:49;;;;;;;3.13;2.81;;;;;;;19.36;32.22;102103.22;;;;-45
2020/03/24 01:19:49;;;;;;;3.31;3.01;;;;;;;19.34;32.23;102099.95;;;;-46
2020/03/24 01:22:49;;;;;;;3.29;2.99;;;;;;;19.33;32.19;102099.20;;;;-47
2020/03/24 01:25:49;;;;;;;3.07;2.77;;;;;;;19.33;32.22;102098.19;;;;-47
2020/03/24 01:28:49;;;;;;;3.19;2.89;;;;;;;19.31;32.31;102103.40;;;;-45
2020/03/24 01:31:49;;;;;;;3.26;2.93;;;;;;;19.30;32.26;102108.60;;;;-47
2020/03/24 01:34:49;;;;;;;3.17;2.87;;;;;;;19.28;32.26;102099.13;;;;-45
2020/03/24 01:37:49;;;;;;;3.43;2.89;;;;;;;19.27;32.28;102096.44;;;;-46
2020/03/24 01:40:49;;;;;;;3.37;3.07;;;;;;;19.27;32.28;102090.38;;;;-45
2020/03/24 01:43:49;;;;;;;3.21;2.91;;;;;;;19.26;32.30;102087.24;;;;-46
2020/03/24 01:46:49;;;;;;;2.79;2.55;;;;;;;19.25;32.29;102080.86;;;;-46
2020/03/24 01:49:49;;;;;;;3.29;2.98;;;;;;;19.23;32.28;102084.17;;;;-45
2020/03/24 01:52:49;;;;;;;2.97;2.67;;;;;;;19.23;32.28;102082.89;;;;-45
2020/03/24 01:55:49;;;;;;;2.85;2.61;;;;;;;19.21;32.31;102082.75;;;;-45
2020/03/24 01:58:49;;;;;;;3.08;2.70;;;;;;;19.20;32.27;102078.77;;;;-45
2020/03/24 02:01:49;;;;;;;2.84;2.57;;;;;;;19.19;32.26;102072.19;;;;-45
2020/03/24 02:04:49;;;;;;;3.16;2.80;;;;;;;19.18;32.31;102076.67;;;;-46
2020/03/24 02:07:49;;;;;;;3.01;2.69;;;;;;;19.17;32.31;102077.05;;;;-46
2020/03/24 02:10:49;;;;;;;3.15;2.83;;;;;;;19.16;32.36;102081.17;;;;-46
2020/03/24 02:13:49;;;;;;;3.26;2.94;;;;;;;19.14;32.30;102079.45;;;;-46
2020/03/24 02:16:49;;;;;;;3.15;2.75;;;;;;;19.13;32.30;102080.73;;;;-47
2020/03/24 02:19:49;;;;;;;3.12;2.77;;;;;;;19.12;32.38;102074.92;;;;-47
2020/03/24 02:22:49;;;;;;;2.82;2.57;;;;;;;19.12;32.32;102072.36;;;;-47
2020/03/24 02:25:49;;;;;;;2.86;2.58;;;;;;;19.10;32.34;102066.08;;;;-46
2020/03/24 02:28:49;;;;;;;3.29;2.59;;;;;;;19.09;32.27;102077.61;;;;-47
2020/03/24 02:31:49;;;;;;;3.09;2.79;;;;;;;19.08;32.36;102076.03;;;;-48
2020/03/24 02:34:49;;;;;;;2.91;2.59;;;;;;;19.08;32.38;102073.67;;;;-47
2020/03/24 02:37:49;;;;;;;2.89;2.61;;;;;;;19.06;32.37;102078.63;;;;-47
2020/03/24 02:40:49;;;;;;;2.77;2.50;;;;;;;19.06;32.36;102080.06;;;;-46
2020/03/24 02:43:49;;;;;;;2.75;2.51;;;;;;;19.04;32.40;102076.59;;;;-46
2020/03/24 02:46:49;;;;;;;2.97;2.61;;;;;;;19.03;32.39;102073.27;;;;-48
2020/03/24 02:49:49;;;;;;;2.62;2.39;;;;;;;19.02;32.35;102077.55;;;;-44
2020/03/24 02:52:49;;;;;;;2.76;2.49;;;;;;;19.02;32.38;102085.13;;;;-45
2020/03/24 02:55:49;;;;;;;2.91;2.51;;;;;;;19.01;32.34;102080.87;;;;-45
2020/03/24 02:58:49;;;;;;;2.52;2.32;;;;;;;19.00;32.35;102078.64;;;;-48
2020/03/24 03:01:49;;;;;;;2.78;2.54;;;;;;;18.99;32.38;102079.91;;;;-45
2020/03/24 03:04:49;;;;;;;2.76;2.51;;;;;;;18.98;32.33;102071.80;;;;-46
2020/03/24 03:07:49;;;;;;;2.72;2.51;;;;;;;18.97;32.36;102069.81;;;;-47
2020/03/24 03:10:49;;;;;;;2.55;2.35;;;;;;;18.96;32.41;102061.05;;;;-46
2020/03/24 03:14:49;;;;;;;2.79;2.44;;;;;;;18.95;32.37;102060.68;;;;-47
2020/03/24 03:17:49;;;;;;;2.79;2.53;;;;;;;18.94;32.37;102064.40;;;;-47
2020/03/24 03:20:49;;;;;;;2.62;2.42;;;;;;;18.93;32.33;102068.73;;;;-47
2020/03/24 03:23:49;;;;;;;2.70;2.42;;;;;;;18.93;32.48;102069.41;;;;-45
2020/03/24 03:26:49;;;;;;;2.49;2.29;;;;;;;18.91;32.39;102069.43;;;;-45
2020/03/24 03:29:49;;;;;;;2.62;2.39;;;;;;;18.90;32.48;102067.07;;;;-45
2020/03/24 03:32:49;;;;;;;2.80;2.46;;;;;;;18.89;32.42;102076.95;;;;-46
2020/03/24 03:35:49;;;;;;;2.69;2.45;;;;;;;18.88;32.47;102071.69;;;;-45
2020/03/24 03:38:49;;;;;;;2.71;2.43;;;;;;;18.88;32.36;102071.84;;;;-45
2020/03/24 03:41:49;;;;;;;2.77;2.40;;;;;;;18.86;32.39;102075.59;;;;-47
2020/03/24 03:44:49;;;;;;;2.51;2.31;;;;;;;18.87;32.47;102075.50;;;;-47
2020/03/24 03:47:49;;;;;;;2.59;2.37;;;;;;;18.86;32.44;102078.61;;;;-47
2020/03/24 03:50:49;;;;;;;2.51;2.29;;;;;;;18.85;32.45;102072.45;;;;-47
2020/03/24 03:53:49;;;;;;;2.83;2.40;;;;;;;18.83;32.50;102073.09;;;;-48
2020/03/24 03:56:49;;;;;;;2.52;2.31;;;;;;;18.83;32.49;102073.54;;;;-47
2020/03/24 03:59:49;;;;;;;2.64;2.31;;;;;;;18.82;32.48;102073.30;;;;-47
2020/03/24 04:02:49;;;;;;;2.71;2.41;;;;;;;18.81;32.41;102077.63;;;;-47
2020/03/24 04:05:49;;;;;;;2.55;2.35;;;;;;;18.80;32.38;102076.03;;;;-49
2020/03/24 04:08:49;;;;;;;2.48;2.28;;;;;;;18.79;32.43;102075.98;;;;-49
2020/03/24 04:11:49;;;;;;;2.31;2.11;;;;;;;18.78;32.47;102074.13;;;;-46
2020/03/24 04:14:49;;;;;;;2.48;2.28;;;;;;;18.77;32.47;102073.21;;;;-47
2020/03/24 04:17:49;;;;;;;2.42;2.22;;;;;;;18.76;32.51;102076.31;;;;-47
2020/03/24 04:20:49;;;;;;;2.50;2.29;;;;;;;18.75;32.56;102075.13;;;;-47
2020/03/24 04:23:49;;;;;;;2.69;2.43;;;;;;;18.75;32.50;102081.55;;;;-47
2020/03/24 04:26:49;;;;;;;3.68;2.30;;;;;;;18.74;32.48;102075.78;;;;-47
2020/03/24 04:29:49;;;;;;;2.51;2.31;;;;;;;18.73;32.46;102074.26;;;;-47
2020/03/24 04:32:49;;;;;;;2.39;2.19;;;;;;;18.72;32.51;102076.47;;;;-47
2020/03/24 04:35:49;;;;;;;2.30;2.10;;;;;;;18.72;32.42;102077.29;;;;-47
2020/03/24 04:38:49;;;;;;;2.59;2.39;;;;;;;18.71;32.52;102080.73;;;;-47
2020/03/24 04:41:49;;;;;;;2.41;2.21;;;;;;;18.72;32.47;102084.48;;;;-47
2020/03/24 04:44:49;;;;;;;2.55;2.31;;;;;;;18.71;32.53;102087.42;;;;-47
2020/03/24 04:47:49;;;;;;;2.68;2.13;;;;;;;18.72;32.54;102086.16;;;;-47
2020/03/24 04:50:49;;;;;;;3.31;2.13;;;;;;;18.72;32.62;102086.52;;;;-46
2020/03/24 04:53:49;;;;;;;3.00;2.23;;;;;;;18.73;32.62;102089.48;;;;-47
2020/03/24 04:56:49;;;;;;;2.63;2.31;;;;;;;18.75;32.50;102093.58;;;;-47
2020/03/24 04:59:49;;;;;;;2.37;2.17;;;;;;;18.75;32.63;102094.70;;;;-47
2020/03/24 05:02:49;;;;;;;2.70;2.31;;;;;;;18.77;32.85;102089.61;;;;-47
2020/03/24 05:05:49;;;;;;;2.20;2.00;;;;;;;18.81;33.00;102101.84;;;;-45
2020/03/24 05:08:49;;;;;;;2.25;2.05;;;;;;;18.84;32.96;102104.63;;;;-46
2020/03/24 05:11:49;;;;;;;2.39;2.18;;;;;;;18.87;32.93;102099.11;;;;-46
2020/03/24 05:14:49;;;;;;;2.40;2.20;;;;;;;18.92;32.92;102095.40;;;;-46
2020/03/24 05:17:49;;;;;;;2.51;2.27;;;;;;;18.95;32.89;102095.89;;;;-46
2020/03/24 05:20:49;;;;;;;2.27;2.07;;;;;;;19.01;32.93;102092.42;;;;-46
2020/03/24 05:23:49;;;;;;;2.71;2.22;;;;;;;19.03;32.99;102093.70;;;;-47
2020/03/24 05:26:49;;;;;;;2.73;2.17;;;;;;;19.09;32.92;102094.01;;;;-47
2020/03/24 05:29:49;;;;;;;2.70;2.15;;;;;;;19.15;32.92;102094.72;;;;-47
2020/03/24 05:32:49;;;;;;;2.37;2.17;;;;;;;19.16;33.09;102090.71;;;;-47
2020/03/24 05:35:49;;;;;;;2.10;1.90;;;;;;;19.22;32.98;102093.56;;;;-47
2020/03/24 05:38:49;;;;;;;2.23;2.03;;;;;;;19.25;33.02;102097.95;;;;-47
2020/03/24 05:41:49;;;;;;;2.40;2.20;;;;;;;19.28;33.14;102102.98;;;;-46
2020/03/24 05:44:49;;;;;;;2.62;2.21;;;;;;;19.33;33.09;102108.25;;;;-47
2020/03/24 05:47:49;;;;;;;2.21;2.00;;;;;;;19.36;33.09;102104.95;;;;-47
2020/03/24 05:50:49;;;;;;;2.35;2.11;;;;;;;19.39;33.03;102104.33;;;;-47
2020/03/24 05:53:49;;;;;;;2.21;2.01;;;;;;;19.43;33.04;102099.64;;;;-47
2020/03/24 05:56:49;;;;;;;2.61;2.29;;;;;;;19.46;33.00;102099.13;;;;-47
2020/03/24 05:59:49;;;;;;;2.31;2.11;;;;;;;19.48;33.17;102100.84;;;;-48
2020/03/24 06:02:49;;;;;;;2.37;2.17;;;;;;;19.51;33.10;102096.88;;;;-47
2020/03/24 06:05:49;;;;;;;2.37;2.03;;;;;;;19.54;33.09;102098.30;;;;-48
2020/03/24 06:08:49;;;;;;;2.41;2.10;;;;;;;19.58;32.90;102100.20;;;;-47
2020/03/24 06:11:49;;;;;;;2.56;2.15;;;;;;;19.60;32.97;102107.11;;;;-46
2020/03/24 06:14:49;;;;;;;2.75;2.23;;;;;;;19.61;33.03;102104.00;;;;-45
2020/03/24 06:17:49;;;;;;;2.72;1.98;;;;;;;19.63;32.98;102108.22;;;;-47
2020/03/24 06:20:49;;;;;;;2.31;1.97;;;;;;;19.65;32.92;102101.59;;;;-47
2020/03/24 06:23:49;;;;;;;2.30;2.10;;;;;;;19.66;32.99;102101.89;;;;-46
2020/03/24 06:26:49;;;;;;;2.35;2.15;;;;;;;19.68;32.92;102103.09;;;;-47
2020/03/24 06:29:49;;;;;;;2.27;2.07;;;;;;;19.68;32.96;102109.62;;;;-47
2020/03/24 06:32:49;;;;;;;2.28;2.08;;;;;;;19.71;32.88;102111.80;;;;-47
2020/03/24 06:35:49;;;;;;;2.22;2.02;;;;;;;19.72;32.91;102113.59;;;;-47
2020/03/24 06:38:49;;;;;;;2.34;2.00;;;;;;;19.75;32.84;102114.38;;;;-48
2020/03/24 06:41:49;;;;;;;2.42;1.99;;;;;;;19.78;32.91;102121.70;;;;-47
2020/03/24 06:44:49;;;;;;;2.30;2.09;;;;;;;19.80;32.89;102120.75;;;;-45
2020/03/24 06:47:49;;;;;;;2.75;1.99;;;;;;;19.81;32.78;102112.12;;;;-47
2020/03/24 06:50:49;;;;;;;2.40;2.19;;;;;;;19.83;32.85;102108.91;;;;-47
2020/03/24 06:53:49;;;;;;;2.15;1.95;;;;;;;19.85;32.76;102105.80;;;;-47
2020/03/24 06:56:49;;;;;;;2.31;2.07;;;;;;;19.88;32.79;102110.15;;;;-48
2020/03/24 06:59:49;;;;;;;2.45;2.09;;;;;;;19.91;32.78;102109.23;;;;-47
2020/03/24 07:02:49;;;;;;;2.30;2.02;;;;;;;19.92;32.74;102107.02;;;;-47
2020/03/24 07:05:49;;;;;;;2.32;2.11;;;;;;;19.96;32.79;102106.62;;;;-49
2020/03/24 07:08:49;;;;;;;2.40;2.19;;;;;;;19.97;32.71;102104.28;;;;-47
2020/03/24 07:11:49;;;;;;;2.30;2.10;;;;;;;20.00;32.77;102107.66;;;;-46
2020/03/24 07:14:49;;;;;;;2.20;2.00;;;;;;;20.02;32.75;102104.44;;;;-46
2020/03/24 07:17:49;;;;;;;2.11;1.91;;;;;;;20.04;32.79;102108.09;;;;-46
2020/03/24 07:20:49;;;;;;;2.11;1.92;;;;;;;20.05;32.80;102113.70;;;;-46
2020/03/24 07:23:49;;;;;;;2.23;2.03;;;;;;;20.07;32.72;102111.06;;;;-45
2020/03/24 07:26:49;;;;;;;2.21;2.01;;;;;;;20.09;32.77;102115.11;;;;-58
2020/03/24 07:29:49;;;;;;;2.50;2.20;;;;;;;20.11;32.58;102115.59;;;;-58
2020/03/24 07:32:49;;;;;;;2.27;2.05;;;;;;;20.12;32.71;102114.46;;;;-58
2020/03/24 07:35:49;;;;;;;2.26;2.06;;;;;;;20.13;32.61;102116.31;;;;-58
2020/03/24 07:38:49;;;;;;;2.43;2.23;;;;;;;20.15;32.56;102119.64;;;;-58
2020/03/24 07:41:49;;;;;;;2.27;2.07;;;;;;;20.16;32.57;102117.60;;;;-58
2020/03/24 07:44:49;;;;;;;2.54;2.29;;;;;;;20.18;32.55;102117.52;;;;-58
2020/03/24 07:47:49;;;;;;;2.17;1.94;;;;;;;20.18;32.67;102119.36;;;;-58
2020/03/24 07:50:49;;;;;;;2.69;2.14;;;;;;;20.19;32.47;102126.64;;;;-58
2020/03/24 07:53:49;;;;;;;2.39;2.17;;;;;;;20.20;32.51;102124.19;;;;-58
2020/03/24 07:56:49;;;;;;;2.42;2.02;;;;;;;20.20;32.50;102126.08;;;;-58
2020/03/24 07:59:49;;;;;;;2.19;1.94;;;;;;;20.20;32.58;102121.67;;;;-58
2020/03/24 08:02:49;;;;;;;2.27;2.07;;;;;;;20.21;32.52;102120.73;;;;-58
2020/03/24 08:05:49;;;;;;;3.49;2.36;;;;;;;20.22;32.54;102124.89;;;;-58
2020/03/24 08:08:49;;;;;;;2.26;2.06;;;;;;;20.25;32.46;102122.35;;;;-58
2020/03/24 08:11:49;;;;;;;2.54;2.21;;;;;;;20.27;32.41;102123.34;;;;-58
2020/03/24 08:14:49;;;;;;;2.27;2.07;;;;;;;20.27;32.59;102115.33;;;;-59
2020/03/24 08:17:49;;;;;;;2.96;2.42;;;;;;;20.28;32.34;102118.59;;;;-59
2020/03/24 08:20:49;;;;;;;2.59;2.21;;;;;;;20.28;32.46;102120.83;;;;-59
2020/03/24 08:23:49;;;;;;;2.51;2.11;;;;;;;20.31;32.43;102127.76;;;;-60
2020/03/24 08:26:49;;;;;;;2.48;2.13;;;;;;;20.33;32.31;102128.17;;;;-60
2020/03/24 08:29:49;;;;;;;2.43;2.07;;;;;;;20.33;32.41;102126.48;;;;-58
2020/03/24 08:32:49;;;;;;;2.21;2.01;;;;;;;20.33;32.52;102132.03;;;;-58
2020/03/24 08:35:49;;;;;;;2.71;2.21;;;;;;;20.34;32.42;102127.94;;;;-58
2020/03/24 08:38:49;;;;;;;5.07;2.37;;;;;;;20.33;32.35;102129.33;;;;-61
2020/03/24 08:41:49;;;;;;;4.71;3.08;;;;;;;20.33;30.86;102128.77;;;;-58
2020/03/24 08:44:49;;;;;;;3.39;2.95;;;;;;;20.32;28.80;102126.13;;;;-61
2020/03/24 08:47:49;;;;;;;4.36;3.05;;;;;;;20.31;29.41;102123.99;;;;-61
2020/03/24 08:50:49;;;;;;;3.69;2.87;;;;;;;20.32;30.03;102129.50;;;;-62
2020/03/24 08:53:49;;;;;;;3.79;3.03;;;;;;;20.33;29.34;102124.80;;;;-56
2020/03/24 08:56:49;;;;;;;4.41;2.81;;;;;;;20.33;29.91;102122.13;;;;-55
2020/03/24 08:59:49;;;;;;;4.02;2.91;;;;;;;20.34;29.61;102121.23;;;;-55
2020/03/24 09:02:49;;;;;;;3.59;2.99;;;;;;;20.35;30.29;102115.37;;;;-57
2020/03/24 09:05:49;;;;;;;3.51;2.84;;;;;;;20.37;29.95;102112.39;;;;-56
2020/03/24 09:08:49;;;;;;;3.25;2.79;;;;;;;20.38;29.31;102115.80;;;;-55
2020/03/24 09:11:49;;;;;;;3.17;2.84;;;;;;;20.38;29.10;102111.70;;;;-55
2020/03/24 09:14:49;;;;;;;3.50;2.81;;;;;;;20.39;29.44;102110.62;;;;-56
2020/03/24 09:17:49;;;;;;;4.59;2.85;;;;;;;20.41;29.26;102111.59;;;;-57
2020/03/24 09:20:49;;;;;;;3.86;2.91;;;;;;;20.41;29.06;102107.84;;;;-57
2020/03/24 09:23:49;;;;;;;3.45;2.60;;;;;;;20.44;29.97;102103.02;;;;-52
2020/03/24 09:26:49;;;;;;;3.52;2.68;;;;;;;20.46;30.30;102099.88;;;;-55
2020/03/24 09:29:49;;;;;;;4.15;2.93;;;;;;;20.48;30.38;102100.31;;;;-53
2020/03/24 09:32:49;;;;;;;4.51;2.89;;;;;;;20.51;30.25;102091.95;;;;-57
2020/03/24 09:35:49;;;;;;;3.41;2.76;;;;;;;20.49;29.58;102093.95;;;;-55
2020/03/24 09:38:49;;;;;;;4.60;2.73;;;;;;;20.50;30.58;102089.38;;;;-58
2020/03/24 09:41:49;;;;;;;5.23;2.77;;;;;;;20.53;30.75;102093.27;;;;-53
2020/03/24 09:44:49;;;;;;;5.22;2.74;;;;;;;20.56;30.91;102087.42;;;;-59
2020/03/24 09:47:49;;;;;;;4.15;2.53;;;;;;;20.58;30.99;102082.56;;;;-57
2020/03/24 09:50:49;;;;;;;3.47;2.79;;;;;;;20.59;31.20;102081.96;;;;-61
2020/03/24 09:53:49;;;;;;;3.25;2.71;;;;;;;20.60;31.31;102080.34;;;;-59
2020/03/24 09:56:49;;;;;;;5.57;2.69;;;;;;;20.46;28.92;102092.62;;;;-64
2020/03/24 09:59:49;;;;;;;7.36;3.27;;;;;;;20.22;27.44;102085.61;;;;-64
2020/03/24 10:02:49;;;;;;;6.46;3.60;;;;;;;19.95;25.00;102084.86;;;;-52
2020/03/24 10:05:49;;;;;;;4.83;3.71;;;;;;;19.82;25.30;102082.16;;;;-59
2020/03/24 10:08:49;;;;;;;5.97;4.06;;;;;;;19.69;24.49;102071.98;;;;-58
2020/03/24 10:11:49;;;;;;;8.05;3.91;;;;;;;19.62;24.26;102063.11;;;;-55
2020/03/24 10:14:49;;;;;;;6.45;4.07;;;;;;;19.59;24.54;102060.71;;;;-61
2020/03/24 10:17:49;;;;;;;5.37;3.83;;;;;;;19.55;24.23;102056.13;;;;-55
2020/03/24 10:20:49;;;;;;;6.17;3.95;;;;;;;19.56;25.22;102052.14;;;;-53
2020/03/24 10:23:49;;;;;;;7.65;3.93;;;;;;;19.71;25.76;102048.33;;;;-61
2020/03/24 10:26:49;;;;;;;4.53;3.29;;;;;;;19.81;26.26;102043.37;;;;-57
2020/03/24 10:29:49;;;;;;;4.91;3.22;;;;;;;19.86;25.58;102045.84;;;;-54
2020/03/24 10:32:49;;;;;;;6.53;3.38;;;;;;;19.91;26.41;102044.56;;;;-57
2020/03/24 10:35:49;;;;;;;4.97;3.03;;;;;;;19.98;26.93;102049.43;;;;-63
2020/03/24 10:38:49;;;;;;;5.27;3.17;;;;;;;20.05;27.40;102049.75;;;;-63
2020/03/24 10:41:49;;;;;;;4.71;3.10;;;;;;;20.10;27.49;102047.34;;;;-58
2020/03/24 10:44:49;;;;;;;4.99;3.03;;;;;;;20.14;27.19;102048.50;;;;-60
2020/03/24 10:47:49;;;;;;;6.92;2.89;;;;;;;20.16;27.84;102045.41;;;;-60
2020/03/24 10:50:49;;;;;;;5.17;3.05;;;;;;;20.19;28.04;102051.27;;;;-63
2020/03/24 10:53:49;;;;;;;4.41;2.69;;;;;;;20.18;27.53;102041.58;;;;-67
2020/03/24 10:56:49;;;;;;;3.71;2.67;;;;;;;20.24;28.44;102042.43;;;;-57
2020/03/24 10:59:49;;;;;;;3.77;2.70;;;;;;;20.28;28.69;102031.95;;;;-58
2020/03/24 11:02:49;;;;;;;4.05;2.83;;;;;;;20.33;29.06;102026.02;;;;-57
2020/03/24 11:05:49;;;;;;;3.84;2.67;;;;;;;20.34;29.09;102017.48;;;;-54
2020/03/24 11:08:49;;;;;;;3.05;2.59;;;;;;;20.38;29.38;102016.62;;;;-56
2020/03/24 11:11:49;;;;;;;3.23;2.63;;;;;;;20.39;29.48;102019.33;;;;-56
2020/03/24 11:14:49;;;;;;;5.24;2.50;;;;;;;20.44;29.81;102014.51;;;;-56
2020/03/24 11:17:49;;;;;;;3.48;2.59;;;;;;;20.47;29.88;102009.78;;;;-57
2020/03/24 11:20:49;;;;;;;4.38;2.47;;;;;;;20.50;30.01;102001.75;;;;-58
2020/03/24 11:23:49;;;;;;;3.01;2.38;;;;;;;20.51;29.93;101991.23;;;;-56
2020/03/24 11:26:49;;;;;;;4.23;2.69;;;;;;;20.54;29.87;101989.81;;;;-54
2020/03/24 11:29:49;;;;;;;4.50;2.78;;;;;;;20.56;30.06;101984.81;;;;-53
2020/03/24 11:32:49;;;;;;;3.63;2.59;;;;;;;20.58;30.03;101980.13;;;;-55
2020/03/24 11:35:49;;;;;;;2.84;2.38;;;;;;;20.59;29.84;101973.92;;;;-55
2020/03/24 11:38:49;;;;;;;5.88;2.70;;;;;;;20.61;30.01;101960.50;;;;-55
2020/03/24 11:41:49;;;;;;;3.90;2.51;;;;;;;20.65;30.17;101961.59;;;;-54
2020/03/24 11:44:49;;;;;;;2.67;2.30;;;;;;;20.66;30.00;101953.94;;;;-56
2020/03/24 11:47:49;;;;;;;3.85;2.60;;;;;;;20.69;30.51;101951.72;;;;-53
2020/03/24 11:50:49;;;;;;;3.08;2.57;;;;;;;20.71;30.23;101959.58;;;;-52
2020/03/24 11:53:49;;;;;;;7.33;2.77;;;;;;;20.73;30.33;101950.64;;;;-52
2020/03/24 11:56:49;;;;;;;2.73;2.45;;;;;;;20.74;30.47;101951.76;;;;-47
2020/03/24 11:59:49;;;;;;;5.28;2.63;;;;;;;20.73;29.91;101950.19;;;;-49
2020/03/24 12:02:49;;;;;;;3.31;2.45;;;;;;;20.72;29.42;101934.25;;;;-50
2020/03/24 12:05:49;;;;;;;3.38;2.35;;;;;;;20.69;29.73;101931.81;;;;-50
2020/03/24 12:08:49;;;;;;;3.66;2.39;;;;;;;20.69;29.62;101930.73;;;;-50
2020/03/24 12:11:49;;;;;;;3.49;2.39;;;;;;;20.68;29.69;101930.50;;;;-50
2020/03/24 12:14:49;;;;;;;4.65;2.51;;;;;;;20.66;29.88;101932.91;;;;-51
2020/03/24 12:17:49;;;;;;;4.21;2.30;;;;;;;20.67;29.77;101926.58;;;;-51
2020/03/24 12:20:49;;;;;;;3.06;2.57;;;;;;;20.68;29.68;101923.62;;;;-50
2020/03/24 12:23:49;;;;;;;3.03;2.39;;;;;;;20.68;29.96;101918.09;;;;-55
2020/03/24 12:26:49;;;;;;;3.22;2.60;;;;;;;20.68;29.68;101913.11;;;;-51
2020/03/24 12:29:49;;;;;;;3.39;2.40;;;;;;;20.67;29.18;101913.66;;;;-51
2020/03/24 12:32:49;;;;;;;3.19;2.55;;;;;;;20.66;29.37;101911.80;;;;-51
2020/03/24 12:35:49;;;;;;;3.55;2.38;;;;;;;20.63;28.80;101911.30;;;;-51
2020/03/24 12:38:49;;;;;;;3.19;2.61;;;;;;;20.61;28.57;101905.06;;;;-50
2020/03/24 12:41:49;;;;;;;3.03;2.51;;;;;;;20.60;28.44;101900.97;;;;-50
2020/03/24 12:44:49;;;;;;;2.92;2.47;;;;;;;20.60;28.50;101898.61;;;;-51
2020/03/24 12:47:51;;;;;;;3.26;2.59;;;;;;;20.59;28.39;101903.26;;;;-51
2020/03/24 12:50:53;;;;;;;3.51;2.40;;;;;;;20.59;28.62;101896.47;;;;-51
2020/03/24 12:53:49;;;;;;;2.74;2.45;;;;;;;20.58;28.32;101889.14;;;;-50
2020/03/24 12:56:49;;;;;;;3.56;2.79;;;;;;;20.57;28.00;101892.98;;;;-51
2020/03/24 12:59:53;;;;;;;3.25;2.70;;;;;;;20.58;28.11;101894.68;;;;-51
2020/03/24 13:02:55;;;;;;;4.07;2.85;;;;;;;20.56;27.95;101891.75;;;;-51
2020/03/24 13:06:01;;;;;;;4.43;3.08;;;;;;;20.55;27.86;101885.48;;;;-51
2020/03/24 13:12:49;;;;;;;3.74;2.82;;;;;;;20.53;28.06;101879.41;;;;-52
2020/03/24 13:15:49;;;;;;;4.12;2.76;;;;;;;20.53;28.05;101878.86;;;;-52
2020/03/24 13:18:49;;;;;;;5.15;3.11;;;;;;;20.52;28.12;101879.64;;;;-52
2020/03/24 13:21:49;;;;;;;3.62;2.92;;;;;;;20.51;27.85;101867.54;;;;-52
2020/03/24 13:24:57;;;;;;;4.13;3.08;;;;;;;20.51;27.93;101866.21;;;;-52
2020/03/24 13:27:49;;;;;;;3.41;2.92;;;;;;;20.50;27.91;101870.83;;;;-51
2020/03/24 13:30:49;;;;;;;4.53;3.10;;;;;;;20.50;28.02;101868.50;;;;-50
2020/03/24 13:33:49;;;;;;;5.09;2.99;;;;;;;20.49;27.84;101866.64;;;;-50
2020/03/24 13:36:50;;;;;;;3.60;2.96;;;;;;;20.50;28.17;101861.16;;;;-51
2020/03/24 13:39:49;;;;;;;5.57;3.27;;;;;;;20.47;28.63;101852.81;;;;-50
2020/03/24 13:42:49;;;;;;;7.57;4.62;;;;;;;20.50;28.59;101844.27;;;;-54
2020/03/24 13:45:49;;;;;;;5.75;3.89;;;;;;;20.51;28.74;101840.69;;;;-50
2020/03/24 13:48:49;;;;;;;5.64;3.83;;;;;;;20.57;29.10;101840.73;;;;-55
2020/03/24 13:51:49;;;;;;;5.57;3.83;;;;;;;20.57;29.26;101831.33;;;;-52
2020/03/24 13:54:49;;;;;;;6.55;3.66;;;;;;;20.61;29.51;101826.48;;;;-54
2020/03/24 13:57:49;;;;;;;4.71;3.56;;;;;;;20.63;29.61;101818.12;;;;-51
2020/03/24 14:00:49;;;;;;;4.37;3.23;;;;;;;20.63;29.40;101818.89;;;;-51
2020/03/24 14:03:49;;;;;;;4.85;3.40;;;;;;;20.66;29.58;101811.75;;;;-51
2020/03/24 14:06:49;;;;;;;5.93;3.80;;;;;;;20.66;29.44;101808.17;;;;-51
2020/03/24 14:09:49;;;;;;;5.62;3.13;;;;;;;20.65;29.16;101804.92;;;;-51
2020/03/24 14:12:49;;;;;;;5.15;3.51;;;;;;;20.65;29.29;101793.23;;;;-51
2020/03/24 14:15:49;;;;;;;5.88;3.27;;;;;;;20.65;28.92;101785.83;;;;-49
2020/03/24 14:18:49;;;;;;;5.30;3.28;;;;;;;20.65;29.28;101785.27;;;;-50
2020/03/24 14:21:49;;;;;;;4.61;3.27;;;;;;;20.65;28.90;101783.92;;;;-49
2020/03/24 14:24:49;;;;;;;4.87;3.33;;;;;;;20.66;29.21;101774.83;;;;-49
2020/03/24 14:27:49;;;;;;;5.75;3.21;;;;;;;20.66;29.34;101780.31;;;;-49
2020/03/24 14:30:49;;;;;;;4.87;3.28;;;;;;;20.67;29.12;101772.69;;;;-49
2020/03/24 14:33:49;;;;;;;5.04;3.28;;;;;;;20.67;29.17;101765.14;;;;-49
2020/03/24 14:36:49;;;;;;;5.75;3.19;;;;;;;20.68;29.13;101767.22;;;;-49
2020/03/24 14:40:04;;;;;;;4.61;3.32;;;;;;;20.68;28.99;101753.73;;;;-49
2020/03/24 14:43:49;;;;;;;4.43;3.08;;;;;;;20.69;29.28;101748.47;;;;-49
2020/03/24 14:46:49;;;;;;;5.31;2.93;;;;;;;20.68;29.33;101743.72;;;;-49
2020/03/24 14:49:50;;;;;;;4.16;2.89;;;;;;;20.69;29.15;101739.23;;;;-49
2020/03/24 14:52:49;;;;;;;3.97;2.98;;;;;;;20.68;29.03;101726.88;;;;-49
2020/03/24 14:55:49;;;;;;;3.85;2.97;;;;;;;20.69;29.06;101727.93;;;;-49
2020/03/24 14:58:49;;;;;;;4.39;2.88;;;;;;;20.68;29.02;101727.94;;;;-50
2020/03/24 15:01:49;;;;;;;4.14;2.98;;;;;;;20.68;29.10;101719.81;;;;-49
2020/03/24 15:04:49;;;;;;;3.95;2.75;;;;;;;20.68;29.19;101720.31;;;;-49
2020/03/24 15:07:49;;;;;;;5.02;2.95;;;;;;;20.68;29.24;101717.64;;;;-51
2020/03/24 15:10:49;;;;;;;4.52;2.98;;;;;;;20.69;29.40;101712.66;;;;-51
2020/03/24 15:13:49;;;;;;;4.29;2.73;;;;;;;20.68;28.88;101705.38;;;;-51
2020/03/24 15:16:49;;;;;;;4.09;3.13;;;;;;;20.67;29.15;101704.72;;;;-45
2020/03/24 15:19:49;;;;;;;3.44;2.73;;;;;;;20.68;29.16;101705.04;;;;-46
2020/03/24 15:23:49;;;;;;;3.39;2.63;;;;;;;20.69;29.19;101701.47;;;;-47
2020/03/24 15:27:49;;;;;;;3.17;2.78;;;;;;;20.68;29.02;101697.98;;;;-46
2020/03/24 15:30:49;;;;;;;4.35;2.92;;;;;;;20.68;29.02;101695.36;;;;-46
2020/03/24 15:33:49;;;;;;;3.93;2.85;;;;;;;20.70;29.32;101689.44;;;;-44
2020/03/24 15:36:49;;;;;;;3.82;2.88;;;;;;;20.69;28.97;101691.73;;;;-45
2020/03/24 15:40:49;;;;;;;3.08;2.68;;;;;;;20.72;29.06;101685.19;;;;-44
2020/03/24 15:43:49;;;;;;;3.05;2.61;;;;;;;20.71;29.11;101685.73;;;;-45
2020/03/24 15:46:49;;;;;;;3.97;2.70;;;;;;;20.72;29.15;101691.98;;;;-44
2020/03/24 15:49:49;;;;;;;4.03;2.87;;;;;;;20.76;30.02;101681.23;;;;-54
2020/03/24 15:52:49;;;;;;;4.29;2.71;;;;;;;20.80;30.46;101685.94;;;;-45
2020/03/24 15:55:49;;;;;;;4.15;2.89;;;;;;;20.82;30.57;101675.47;;;;-46
2020/03/24 15:58:50;;;;;;;3.17;2.73;;;;;;;20.86;30.49;101673.02;;;;-44
2020/03/24 16:01:50;;;;;;;3.12;2.71;;;;;;;20.87;30.39;101672.59;;;;-48
2020/03/24 16:04:49;;;;;;;3.77;2.87;;;;;;;20.82;28.99;101674.91;;;;-47
2020/03/24 16:07:50;;;;;;;3.39;2.95;;;;;;;20.79;28.25;101675.09;;;;-47
2020/03/24 16:10:49;;;;;;;4.59;2.89;;;;;;;20.77;27.98;101669.03;;;;-47
2020/03/24 16:20:15;;;;;;;4.15;2.84;;;;;;;20.69;27.60;101658.16;;;;-47
2020/03/24 16:23:16;;;;;;;3.95;2.97;;;;;;;20.67;27.83;101661.34;;;;-47
2020/03/24 16:27:16;;;;;;;4.67;2.94;;;;;;;20.65;27.49;101651.03;;;;-47
2020/03/24 16:30:16;;;;;;;4.41;3.29;;;;;;;20.64;27.76;101656.19;;;;-47
2020/03/24 16:33:16;;;;;;;4.52;3.33;;;;;;;20.62;27.69;101652.64;;;;-48
2020/03/24 16:36:16;;;;;;;4.39;3.18;;;;;;;20.60;27.48;101651.96;;;;-47
2020/03/24 16:39:18;;;;;;;3.83;3.03;;;;;;;20.59;27.55;101648.11;;;;-48
2020/03/24 16:43:15;;;;;;;4.08;2.89;;;;;;;20.60;28.34;101642.13;;;;-46
2020/03/24 16:46:15;;;;;;;3.63;3.11;;;;;;;20.65;28.74;101645.16;;;;-48
2020/03/24 16:49:15;;;;;;;3.27;2.81;;;;;;;20.67;28.91;101641.70;;;;-46
2020/03/24 16:52:15;;;;;;;3.81;2.67;;;;;;;20.72;29.37;101638.53;;;;-46
2020/03/24 16:55:15;;;;;;;4.31;2.92;;;;;;;20.67;28.34;101640.75;;;;-46
2020/03/24 16:58:15;;;;;;;4.18;2.86;;;;;;;20.70;28.30;101643.44;;;;-46
2020/03/24 17:01:15;;;;;;;3.90;2.94;;;;;;;20.71;28.61;101648.15;;;;-46
2020/03/24 17:04:15;;;;;;;4.76;2.90;;;;;;;20.75;28.95;101645.41;;;;-55